AirBox status report


DeploymentNumber of DevicesDetailAvg. TemperatureAvg. HumidityAvg. PM2.5Version
1 Edimax AirBox (Taipei) 14.19% (22/155) [HTML] [JSON] [Dataset A]34.17℃ 95.95% 14 μg/m3 2018-09-23T04:05:31Z
2 Edimax AirBox (New Taipei) 39.6% (118/298) [HTML] [JSON] [Dataset B]34.03℃ 89.84% 18.58 μg/m3 2018-09-23T04:05:31Z
3 Edimax AirBox (Taoyuan) 34.47% (81/235) [HTML] [JSON] [Dataset A]34.34℃ 80.64% 28.49 μg/m3 2018-09-23T04:05:31Z
4 Edimax AirBox (Taichung) 67.24% (156/232) [HTML] [JSON] [Dataset B]34.96℃ 83.38% 42.56 μg/m3 2018-09-23T04:05:31Z
5 Edimax AirBox (Tainan) 50% (107/214) [HTML] [JSON] [Dataset B]35.72℃ 89.76% 35.21 μg/m3 2018-09-23T04:05:31Z
6 Edimax AirBox (Kaohsiung) 59.92% (145/242) [HTML] [JSON] [Dataset B]34.76℃ 92.23% 41.75 μg/m3 2018-09-23T04:05:31Z
7 Edimax AirBox (Korea) 100% (937/937) [HTML] [JSON] [Dataset M]30.75℃ 57.99% 17.35 μg/m3 2018-09-23T04:05:32Z
8 Edimax AirBox (LASS) 9.46% (7/74) [HTML] [JSON] [Dataset A]34.66℃ 80.71% 42 μg/m3 2018-09-23T04:05:33Z
9 Edimax AirBox (TaichungZero) 47.3% (70/148) [HTML] [JSON] [Dataset A]36.6℃ 76.96% 43.54 μg/m3 2018-09-23T04:05:33Z
10 Edimax AirBox (TaoyuanFirst) 33.33% (9/27) [HTML] [JSON] [Dataset A]35.15℃ 75.33% 27.11 μg/m3 2018-09-23T04:05:33Z
11 Edimax AirBox (other) 100% (676/676) [HTML] [JSON] [Dataset A]36.12℃ 64% 37 μg/m3 2018-09-23T04:05:33Z
12 LASS AirBox (Hsinchu) 54% (27/50) [HTML] [JSON] [Dataset A]34.47℃ 85.41% 30.15 μg/m3 2018-09-23T04:05:31Z
13 LASS AirBox (Yunlin) 37.82% (73/193) [HTML] [JSON] [Dataset A]35.57℃ 84.07% 42.95 μg/m3 2018-09-23T04:05:32Z
14 LASS AirBox (Chiayi) 39.22% (20/51) [HTML] [JSON] [Dataset A]35.61℃ 71.7% 36.45 μg/m3 2018-09-23T04:05:32Z
15 LASS AirBox (Chiayi County) 35.56% (64/180) [HTML] [JSON] [Dataset A]34.9℃ 72.56% 35.48 μg/m3 2018-09-23T04:05:32Z
16 LASS AirBox (Kinmen) 16.67% (4/24) [HTML] [JSON] [Dataset A]34.5℃ 89% 49.5 μg/m3 2018-09-23T04:05:32Z
17 LASS AirBox (Ilan) 0.93% (1/107) [HTML] [JSON] [Dataset A]32℃ 73% 7 μg/m3 2018-09-23T04:05:32Z
18 LASS AirBox (Pingtung) 15.65% (36/230) [HTML] [JSON] [Dataset A]33.98℃ 63.75% 39.94 μg/m3 2018-09-23T04:05:32Z
19 LASS (LASS FT) 100% (113/113) [HTML] [JSON] [Dataset C]30.4℃ 59.41% 45.88 μg/m3 2018-09-23T04:05:33Z
20 LASS (LASS4U) 100% (57/57) [HTML] [JSON] [Dataset D]28.67℃ 68.88% 28.77 μg/m3 2018-09-23T04:05:33Z
21 MAPS (WiFi) 4.6% (4/87) [HTML] [JSON] [Dataset E]-36.54℃ 25% 32.75 μg/m3 2018-09-23T04:05:33Z
22 MAPS (RESCUE_TW) 21.88% (7/32) [HTML] [JSON] [Dataset K]152.23℃ 242.77% 4055.14 μg/m3 2018-09-23T04:05:33Z
23 MAPS (other) 100% (1/1) [HTML] [JSON] [Dataset E]30℃ 54.7% 32 μg/m3 2018-09-23T04:05:33Z
24 ASLUNG 100% (50/50) [HTML] [JSON] [Dataset F]30.1℃ 58.26% 51.2 μg/m3 2018-09-23T04:05:33Z
25 *AirQ 100% (154/154) [HTML] [JSON] [Dataset J]0℃ 0% 38.06 μg/m3 2018-09-23T04:05:33Z
26 *AirU 100% (560/560) [HTML] [JSON] [Dataset L]0℃ 0% 24.88 μg/m3 2018-09-23T04:05:33Z
27 *Asus AirBox 100% (38/38) [HTML] [JSON] [Dataset G]32.37℃ 65.18% 19.24 μg/m3 2018-09-23T04:05:33Z
28 *gov Indie N/A (0/0) [HTML] [JSON] [Dataset H]0℃ 0% 0 μg/m3 2018-09-23T04:05:33Z
29 *ProbeCube 100% (3/3) [HTML] [JSON] [Dataset I]30.03℃ 78.3% 0 μg/m3 2018-09-23T04:05:33Z
30 Total 68.5% (3540/5168)

Resource:

Note: